DAUZ

In Aménas Airport

Aménas, Algeria
METAR DAUZ 160500Z 31005KT 8000 NSC 04/M03 Q1026
Observed Flight Rules
Dec-16 @ 05:00 UTC (52 minutes ago) Marginal Visual Flight Rules
Wind Visibility Clouds
310° at 5 knots 7,998 meters
  • Clear skies
Temperatures Readings
Current 4°C / 39°F
Dewpoint -3°C / 27°F
Humidity 61%
Altimeter 30.3" Hg
Pressure 1026 hPa
Elevation 562
METAR DAUZ 160500Z 31005KT 8000 NSC 04/M03 Q1026
Observed Flight Rules
Dec-16 @ 05:00 UTC
(52 minutes ago)
MVFR
Wind Visibility
310° at 5 knots 7,998 meters
Clouds
  • Clear skies
Temperature Dewpoint
4°C / 39°F -3°C / 27°F
Humidity Altimeter Pressure
61% 30.3" Hg 1026 hPa